sensor_id;sensor_type;location;lat;lon;timestamp;pressure;altitude;pressure_sealevel;temperature;humidity
48352;BME280;34163;49.314;6.752;2023-10-19T08:06:26;97588.16;;;5.60;100.00
48352;BME280;34163;49.314;6.752;2023-10-19T08:08:52;97583.00;;;5.58;100.00
48352;BME280;34163;49.314;6.752;2023-10-19T08:11:18;97574.03;;;5.62;100.00
48352;BME280;34163;49.314;6.752;2023-10-19T08:13:43;97576.38;;;5.67;100.00
48352;BME280;34163;49.314;6.752;2023-10-19T08:16:08;97566.88;;;5.64;100.00
48352;BME280;34163;49.314;6.752;2023-10-19T08:18:34;97561.72;;;5.63;100.00
48352;BME280;34163;49.314;6.752;2023-10-19T08:21:01;97572.94;;;5.67;100.00
48352;BME280;34163;49.314;6.752;2023-10-19T08:23:26;97562.50;;;5.65;100.00
48352;BME280;34163;49.314;6.752;2023-10-19T08:25:52;97559.00;;;5.64;100.00
48352;BME280;34163;49.314;6.752;2023-10-19T08:28:18;97555.84;;;5.74;100.00
48352;BME280;34163;49.314;6.752;2023-10-19T08:30:43;97546.56;;;5.68;100.00
48352;BME280;34163;49.314;6.752;2023-10-19T08:33:10;97552.31;;;5.75;100.00
48352;BME280;34163;49.314;6.752;2023-10-19T08:35:38;97559.88;;;5.65;100.00
48352;BME280;34163;49.314;6.752;2023-10-19T08:38:04;97557.34;;;5.63;100.00
48352;BME280;34163;49.314;6.752;2023-10-19T08:40:36;97558.00;;;5.67;100.00
48352;BME280;34163;49.314;6.752;2023-10-19T08:43:02;97541.47;;;5.65;100.00
48352;BME280;34163;49.314;6.752;2023-10-19T08:45:29;97529.56;;;5.74;100.00
48352;BME280;34163;49.314;6.752;2023-10-19T08:47:58;97529.75;;;5.71;100.00
48352;BME280;34163;49.314;6.752;2023-10-19T08:50:31;97525.16;;;5.74;100.00
48352;BME280;34163;49.314;6.752;2023-10-19T08:52:57;97526.38;;;5.69;100.00
48352;BME280;34163;49.314;6.752;2023-10-19T08:55:22;97521.69;;;5.74;100.00
48352;BME280;34163;49.314;6.752;2023-10-19T08:57:48;97520.19;;;5.70;100.00
48352;BME280;34163;49.314;6.752;2023-10-19T09:00:14;97525.56;;;5.82;100.00
48352;BME280;34163;49.314;6.752;2023-10-19T09:02:42;97517.88;;;5.79;100.00
48352;BME280;34163;49.314;6.752;2023-10-19T09:05:11;97518.88;;;5.77;100.00
48352;BME280;34163;49.314;6.752;2023-10-19T09:07:54;97526.19;;;5.72;100.00
48352;BME280;34163;49.314;6.752;2023-10-19T09:10:22;97511.91;;;5.76;100.00
48352;BME280;34163;49.314;6.752;2023-10-19T09:12:58;97516.53;;;5.72;100.00
48352;BME280;34163;49.314;6.752;2023-10-19T09:15:24;97509.50;;;5.73;100.00
48352;BME280;34163;49.314;6.752;2023-10-19T09:17:50;97498.22;;;5.71;100.00
48352;BME280;34163;49.314;6.752;2023-10-19T09:20:19;97503.28;;;5.74;100.00
48352;BME280;34163;49.314;6.752;2023-10-19T09:22:52;97490.91;;;5.76;100.00
48352;BME280;34163;49.314;6.752;2023-10-19T09:25:18;97500.66;;;5.74;100.00
48352;BME280;34163;49.314;6.752;2023-10-19T09:27:43;97495.50;;;5.72;100.00
48352;BME280;34163;49.314;6.752;2023-10-19T09:30:09;97493.06;;;5.69;100.00
48352;BME280;34163;49.314;6.752;2023-10-19T09:32:36;97486.03;;;5.70;100.00
48352;BME280;34163;49.314;6.752;2023-10-19T09:35:04;97494.84;;;5.69;100.00
48352;BME280;34163;49.314;6.752;2023-10-19T09:40:35;97500.47;;;5.62;100.00
48352;BME280;34163;49.314;6.752;2023-10-19T09:43:04;97494.47;;;5.75;100.00
48352;BME280;34163;49.314;6.752;2023-10-19T09:45:31;97501.72;;;5.71;100.00
48352;BME280;34163;49.314;6.752;2023-10-19T09:48:00;97503.28;;;5.74;100.00
48352;BME280;34163;49.314;6.752;2023-10-19T09:50:26;97502.16;;;5.63;100.00
48352;BME280;34163;49.314;6.752;2023-10-19T09:52:52;97513.63;;;5.77;100.00
48352;BME280;34163;49.314;6.752;2023-10-19T09:55:19;97510.91;;;5.78;100.00
48352;BME280;34163;49.314;6.752;2023-10-19T09:58:09;97498.78;;;5.76;100.00
48352;BME280;34163;49.314;6.752;2023-10-19T10:00:40;97495.22;;;5.77;100.00
48352;BME280;34163;49.314;6.752;2023-10-19T10:03:27;97493.25;;;5.80;100.00
48352;BME280;34163;49.314;6.752;2023-10-19T10:05:55;97500.13;;;5.83;100.00
48352;BME280;34163;49.314;6.752;2023-10-19T10:10:46;97491.41;;;5.82;100.00
48352;BME280;34163;49.314;6.752;2023-10-19T10:15:50;97483.53;;;5.82;100.00
48352;BME280;34163;49.314;6.752;2023-10-19T10:18:17;97481.72;;;5.83;100.00
48352;BME280;34163;49.314;6.752;2023-10-19T10:20:42;97479.72;;;5.72;100.00
48352;BME280;34163;49.314;6.752;2023-10-19T10:23:20;97476.84;;;5.77;100.00
48352;BME280;34163;49.314;6.752;2023-10-19T10:25:55;97474.13;;;5.78;100.00
48352;BME280;34163;49.314;6.752;2023-10-19T10:28:23;97471.75;;;5.74;100.00
48352;BME280;34163;49.314;6.752;2023-10-19T10:33:52;97485.16;;;5.69;100.00
48352;BME280;34163;49.314;6.752;2023-10-19T10:36:20;97480.69;;;5.71;100.00
48352;BME280;34163;49.314;6.752;2023-10-19T10:38:46;97475.53;;;5.70;100.00
48352;BME280;34163;49.314;6.752;2023-10-19T10:41:11;97467.66;;;5.84;100.00
48352;BME280;34163;49.314;6.752;2023-10-19T10:43:53;97470.38;;;5.82;100.00
48352;BME280;34163;49.314;6.752;2023-10-19T10:46:22;97466.22;;;5.78;100.00
48352;BME280;34163;49.314;6.752;2023-10-19T10:48:47;97469.69;;;5.79;100.00
48352;BME280;34163;49.314;6.752;2023-10-19T10:51:20;97476.84;;;5.77;100.00
48352;BME280;34163;49.314;6.752;2023-10-19T10:53:49;97476.00;;;5.91;100.00
48352;BME280;34163;49.314;6.752;2023-10-19T10:56:15;97481.91;;;5.80;100.00
48352;BME280;34163;49.314;6.752;2023-10-19T10:58:41;97473.47;;;5.75;100.00
48352;BME280;34163;49.314;6.752;2023-10-19T11:01:06;97479.47;;;5.77;100.00
48352;BME280;34163;49.314;6.752;2023-10-19T11:03:32;97482.84;;;5.93;100.00
48352;BME280;34163;49.314;6.752;2023-10-19T11:06:06;97471.41;;;5.94;100.00
48352;BME280;34163;49.314;6.752;2023-10-19T11:08:35;97468.31;;;5.88;100.00
48352;BME280;34163;49.314;6.752;2023-10-19T11:13:55;97464.63;;;5.90;100.00
48352;BME280;34163;49.314;6.752;2023-10-19T11:16:33;97472.34;;;5.93;100.00
48352;BME280;34163;49.314;6.752;2023-10-19T11:18:58;97470.56;;;5.94;100.00
48352;BME280;34163;49.314;6.752;2023-10-19T11:21:24;97482.69;;;5.96;100.00
48352;BME280;34163;49.314;6.752;2023-10-19T11:26:47;97483.56;;;6.26;100.00
48352;BME280;34163;49.314;6.752;2023-10-19T11:29:16;97479.88;;;6.28;100.00
48352;BME280;34163;49.314;6.752;2023-10-19T11:31:41;97474.44;;;6.17;100.00
48352;BME280;34163;49.314;6.752;2023-10-19T11:34:09;97475.94;;;6.21;100.00
48352;BME280;34163;49.314;6.752;2023-10-19T11:36:35;97476.13;;;6.32;100.00
48352;BME280;34163;49.314;6.752;2023-10-19T11:39:03;97477.91;;;6.32;100.00
48352;BME280;34163;49.314;6.752;2023-10-19T11:41:37;97478.19;;;6.42;100.00
48352;BME280;34163;49.314;6.752;2023-10-19T11:44:02;97474.78;;;6.40;100.00
48352;BME280;34163;49.314;6.752;2023-10-19T11:46:27;97471.88;;;6.44;100.00
48352;BME280;34163;49.314;6.752;2023-10-19T11:48:54;97469.34;;;6.43;100.00
48352;BME280;34163;49.314;6.752;2023-10-19T11:51:19;97456.19;;;6.43;100.00
48352;BME280;34163;49.314;6.752;2023-10-19T11:53:45;97452.44;;;6.47;100.00
48352;BME280;34163;49.314;6.752;2023-10-19T11:56:11;97439.47;;;6.44;100.00
48352;BME280;34163;49.314;6.752;2023-10-19T11:58:38;97429.78;;;6.44;100.00
48352;BME280;34163;49.314;6.752;2023-10-19T12:01:05;97437.41;;;6.34;100.00
48352;BME280;34163;49.314;6.752;2023-10-19T12:03:33;97430.16;;;6.38;100.00
48352;BME280;34163;49.314;6.752;2023-10-19T12:06:02;97434.13;;;6.31;100.00
48352;BME280;34163;49.314;6.752;2023-10-19T12:08:29;97418.72;;;6.39;100.00
48352;BME280;34163;49.314;6.752;2023-10-19T12:10:54;97415.69;;;6.45;100.00
48352;BME280;34163;49.314;6.752;2023-10-19T12:13:19;97416.53;;;6.46;100.00
48352;BME280;34163;49.314;6.752;2023-10-19T12:15:45;97409.78;;;6.42;100.00
48352;BME280;34163;49.314;6.752;2023-10-19T12:18:17;97406.25;;;6.55;100.00
48352;BME280;34163;49.314;6.752;2023-10-19T12:20:42;97409.03;;;6.40;100.00
48352;BME280;34163;49.314;6.752;2023-10-19T12:23:10;97406.50;;;6.38;100.00
48352;BME280;34163;49.314;6.752;2023-10-19T12:25:35;97415.47;;;6.21;100.00
48352;BME280;34163;49.314;6.752;2023-10-19T12:28:02;97416.47;;;6.33;100.00
48352;BME280;34163;49.314;6.752;2023-10-19T12:30:29;97415.25;;;6.39;100.00
48352;BME280;34163;49.314;6.752;2023-10-19T12:32:59;97407.84;;;6.31;100.00
48352;BME280;34163;49.314;6.752;2023-10-19T12:35:25;97403.34;;;6.18;100.00
48352;BME280;34163;49.314;6.752;2023-10-19T12:38:01;97393.28;;;6.25;100.00
48352;BME280;34163;49.314;6.752;2023-10-19T12:40:32;97388.63;;;6.16;100.00
48352;BME280;34163;49.314;6.752;2023-10-19T12:43:00;97387.03;;;6.13;100.00
48352;BME280;34163;49.314;6.752;2023-10-19T12:45:28;97388.53;;;6.17;100.00
48352;BME280;34163;49.314;6.752;2023-10-19T12:47:53;97395.00;;;6.12;100.00
48352;BME280;34163;49.314;6.752;2023-10-19T12:50:19;97392.19;;;6.15;100.00
48352;BME280;34163;49.314;6.752;2023-10-19T12:52:48;97378.28;;;6.13;100.00
48352;BME280;34163;49.314;6.752;2023-10-19T12:55:14;97363.72;;;6.22;100.00
48352;BME280;34163;49.314;6.752;2023-10-19T12:57:39;97339.22;;;6.21;100.00
48352;BME280;34163;49.314;6.752;2023-10-19T13:00:06;97333.22;;;6.19;100.00
48352;BME280;34163;49.314;6.752;2023-10-19T13:02:48;97337.50;;;6.20;100.00
48352;BME280;34163;49.314;6.752;2023-10-19T13:05:14;97352.53;;;6.18;100.00
48352;BME280;34163;49.314;6.752;2023-10-19T13:07:43;97346.47;;;6.17;100.00
48352;BME280;34163;49.314;6.752;2023-10-19T13:10:08;97336.88;;;6.16;100.00
48352;BME280;34163;49.314;6.752;2023-10-19T13:12:33;97329.66;;;6.33;100.00
48352;BME280;34163;49.314;6.752;2023-10-19T13:14:59;97328.69;;;6.21;100.00
48352;BME280;34163;49.314;6.752;2023-10-19T13:17:24;97330.28;;;6.09;100.00
48352;BME280;34163;49.314;6.752;2023-10-19T13:19:50;97321.88;;;6.04;100.00
48352;BME280;34163;49.314;6.752;2023-10-19T13:22:20;97317.78;;;6.27;100.00
48352;BME280;34163;49.314;6.752;2023-10-19T13:24:46;97322.22;;;6.40;100.00
48352;BME280;34163;49.314;6.752;2023-10-19T13:27:12;97315.78;;;6.31;100.00
48352;BME280;34163;49.314;6.752;2023-10-19T13:29:37;97301.13;;;6.27;100.00
48352;BME280;34163;49.314;6.752;2023-10-19T13:32:05;97304.34;;;6.32;100.00
48352;BME280;34163;49.314;6.752;2023-10-19T13:34:30;97306.69;;;6.22;100.00
48352;BME280;34163;49.314;6.752;2023-10-19T13:37:04;97292.72;;;6.22;100.00
48352;BME280;34163;49.314;6.752;2023-10-19T13:39:33;97283.88;;;6.23;100.00
48352;BME280;34163;49.314;6.752;2023-10-19T13:41:58;97280.06;;;6.14;100.00
48352;BME280;34163;49.314;6.752;2023-10-19T13:44:23;97272.06;;;6.15;100.00
48352;BME280;34163;49.314;6.752;2023-10-19T13:46:53;97277.16;;;6.31;100.00
48352;BME280;34163;49.314;6.752;2023-10-19T13:49:19;97269.81;;;6.36;100.00
48352;BME280;34163;49.314;6.752;2023-10-19T13:51:44;97257.22;;;6.42;100.00
48352;BME280;34163;49.314;6.752;2023-10-19T13:54:09;97251.50;;;6.35;100.00
48352;BME280;34163;49.314;6.752;2023-10-19T13:56:36;97247.09;;;6.35;100.00
48352;BME280;34163;49.314;6.752;2023-10-19T13:59:01;97242.56;;;6.38;100.00
48352;BME280;34163;49.314;6.752;2023-10-19T14:01:26;97238.25;;;6.36;100.00
48352;BME280;34163;49.314;6.752;2023-10-19T14:03:54;97243.00;;;6.44;100.00
48352;BME280;34163;49.314;6.752;2023-10-19T14:06:20;97238.69;;;6.30;100.00
48352;BME280;34163;49.314;6.752;2023-10-19T14:08:45;97247.09;;;6.35;100.00
48352;BME280;34163;49.314;6.752;2023-10-19T14:11:10;97249.53;;;6.39;100.00
48352;BME280;34163;49.314;6.752;2023-10-19T14:13:36;97238.50;;;6.46;100.00
48352;BME280;34163;49.314;6.752;2023-10-19T14:16:07;97238.06;;;6.52;100.00
48352;BME280;34163;49.314;6.752;2023-10-19T14:18:33;97244.94;;;6.55;100.00
48352;BME280;34163;49.314;6.752;2023-10-19T14:20:58;97237.97;;;6.54;100.00
48352;BME280;34163;49.314;6.752;2023-10-19T14:23:24;97232.69;;;6.41;100.00
48352;BME280;34163;49.314;6.752;2023-10-19T14:25:49;97216.81;;;6.55;100.00
48352;BME280;34163;49.314;6.752;2023-10-19T14:28:25;97206.59;;;6.51;100.00
48352;BME280;34163;49.314;6.752;2023-10-19T14:30:50;97194.50;;;6.35;100.00
48352;BME280;34163;49.314;6.752;2023-10-19T14:33:16;97192.63;;;6.50;100.00
48352;BME280;34163;49.314;6.752;2023-10-19T14:35:41;97200.31;;;6.53;100.00
48352;BME280;34163;49.314;6.752;2023-10-19T14:38:07;97182.41;;;6.46;100.00
48352;BME280;34163;49.314;6.752;2023-10-19T14:40:34;97174.72;;;6.43;100.00
48352;BME280;34163;49.314;6.752;2023-10-19T14:42:59;97169.38;;;6.57;100.00
48352;BME280;34163;49.314;6.752;2023-10-19T14:45:28;97152.53;;;6.34;100.00
48352;BME280;34163;49.314;6.752;2023-10-19T14:47:54;97156.41;;;6.41;100.00
48352;BME280;34163;49.314;6.752;2023-10-19T14:50:20;97164.31;;;6.54;100.00
48352;BME280;34163;49.314;6.752;2023-10-19T14:52:47;97155.16;;;6.47;100.00
48352;BME280;34163;49.314;6.752;2023-10-19T14:55:13;97165.91;;;6.57;100.00
48352;BME280;34163;49.314;6.752;2023-10-19T14:57:41;97167.81;;;6.54;100.00
48352;BME280;34163;49.314;6.752;2023-10-19T15:00:07;97163.06;;;6.47;100.00
48352;BME280;34163;49.314;6.752;2023-10-19T15:02:51;97156.00;;;6.60;100.00
48352;BME280;34163;49.314;6.752;2023-10-19T15:05:19;97157.72;;;7.85;100.00
48352;BME280;34163;49.314;6.752;2023-10-19T15:07:52;97155.38;;;6.69;100.00
48352;BME280;34163;49.314;6.752;2023-10-19T15:10:25;97145.25;;;6.63;100.00
48352;BME280;34163;49.314;6.752;2023-10-19T15:12:51;97139.38;;;6.72;100.00
48352;BME280;34163;49.314;6.752;2023-10-19T15:15:19;97144.44;;;6.63;100.00
48352;BME280;34163;49.314;6.752;2023-10-19T15:17:44;97141.69;;;6.64;100.00
48352;BME280;34163;49.314;6.752;2023-10-19T15:20:11;97139.69;;;6.68;100.00
48352;BME280;34163;49.314;6.752;2023-10-19T15:22:40;97148.88;;;6.62;100.00
48352;BME280;34163;49.314;6.752;2023-10-19T15:25:05;97154.13;;;6.62;100.00
48352;BME280;34163;49.314;6.752;2023-10-19T15:27:35;97162.97;;;6.61;100.00
48352;BME280;34163;49.314;6.752;2023-10-19T15:30:01;97148.41;;;6.55;100.00
48352;BME280;34163;49.314;6.752;2023-10-19T15:32:27;97142.22;;;6.57;100.00
48352;BME280;34163;49.314;6.752;2023-10-19T15:34:55;97146.22;;;6.62;100.00
48352;BME280;34163;49.314;6.752;2023-10-19T15:37:21;97149.47;;;6.66;100.00
48352;BME280;34163;49.314;6.752;2023-10-19T15:39:47;97144.44;;;6.63;100.00
48352;BME280;34163;49.314;6.752;2023-10-19T15:42:12;97122.09;;;6.68;100.00
48352;BME280;34163;49.314;6.752;2023-10-19T15:44:38;97120.94;;;6.72;100.00
48352;BME280;34163;49.314;6.752;2023-10-19T15:47:03;97122.97;;;6.69;100.00
48352;BME280;34163;49.314;6.752;2023-10-19T15:49:53;97128.94;;;6.84;100.00
48352;BME280;34163;49.314;6.752;2023-10-19T15:52:22;97122.97;;;6.69;100.00
48352;BME280;34163;49.314;6.752;2023-10-19T15:54:48;97116.84;;;6.68;100.00
48352;BME280;34163;49.314;6.752;2023-10-19T15:57:13;97121.78;;;6.60;100.00
48352;BME280;34163;49.314;6.752;2023-10-19T15:59:39;97133.50;;;6.56;100.00
48352;BME280;34163;49.314;6.752;2023-10-19T16:02:05;97135.16;;;6.57;100.00
48352;BME280;34163;49.314;6.752;2023-10-19T16:04:41;97140.53;;;6.68;100.00
48352;BME280;34163;49.314;6.752;2023-10-19T16:07:08;97142.00;;;6.72;100.00
48352;BME280;34163;49.314;6.752;2023-10-19T16:12:41;97139.56;;;6.82;100.00
48352;BME280;34163;49.314;6.752;2023-10-19T16:15:07;97148.84;;;6.75;100.00
48352;BME280;34163;49.314;6.752;2023-10-19T16:17:32;97152.63;;;6.71;100.00
48352;BME280;34163;49.314;6.752;2023-10-19T16:19:58;97149.59;;;6.64;100.00
48352;BME280;34163;49.314;6.752;2023-10-19T16:22:23;97162.44;;;6.56;100.00
48352;BME280;34163;49.314;6.752;2023-10-19T16:24:48;97164.00;;;6.59;100.00
48352;BME280;34163;49.314;6.752;2023-10-19T16:27:14;97167.69;;;6.69;100.00
48352;BME280;34163;49.314;6.752;2023-10-19T16:29:57;97168.53;;;6.69;100.00
48352;BME280;34163;49.314;6.752;2023-10-19T16:32:25;97172.22;;;6.80;100.00
48352;BME280;34163;49.314;6.752;2023-10-19T16:34:53;97151.59;;;6.86;100.00
48352;BME280;34163;49.314;6.752;2023-10-19T16:37:18;97150.63;;;6.75;100.00
48352;BME280;34163;49.314;6.752;2023-10-19T16:39:43;97160.75;;;6.68;100.00
48352;BME280;34163;49.314;6.752;2023-10-19T16:42:09;97159.06;;;6.80;100.00
48352;BME280;34163;49.314;6.752;2023-10-19T16:44:34;97163.38;;;6.81;100.00
48352;BME280;34163;49.314;6.752;2023-10-19T16:47:00;97162.53;;;6.80;100.00
48352;BME280;34163;49.314;6.752;2023-10-19T16:49:25;97161.47;;;6.70;100.00
48352;BME280;34163;49.314;6.752;2023-10-19T16:51:50;97172.66;;;6.73;100.00
48352;BME280;34163;49.314;6.752;2023-10-19T16:54:15;97171.78;;;6.86;100.00
48352;BME280;34163;49.314;6.752;2023-10-19T16:56:41;97167.47;;;6.85;100.00
48352;BME280;34163;49.314;6.752;2023-10-19T16:59:11;97163.56;;;6.78;100.00
48352;BME280;34163;49.314;6.752;2023-10-19T17:01:37;97155.38;;;6.69;100.00
48352;BME280;34163;49.314;6.752;2023-10-19T17:04:02;97154.34;;;6.72;100.00
48352;BME280;34163;49.314;6.752;2023-10-19T17:06:28;97154.75;;;6.79;100.00
48352;BME280;34163;49.314;6.752;2023-10-19T17:08:53;97154.31;;;6.85;100.00
48352;BME280;34163;49.314;6.752;2023-10-19T17:11:18;97158.09;;;6.81;100.00
48352;BME280;34163;49.314;6.752;2023-10-19T17:13:44;97146.94;;;6.77;100.00
48352;BME280;34163;49.314;6.752;2023-10-19T17:16:09;97120.84;;;6.74;100.00
48352;BME280;34163;49.314;6.752;2023-10-19T17:18:35;97103.16;;;6.76;100.00
48352;BME280;34163;49.314;6.752;2023-10-19T17:21:03;97086.94;;;6.82;100.00
48352;BME280;34163;49.314;6.752;2023-10-19T17:23:29;97077.56;;;6.91;100.00
48352;BME280;34163;49.314;6.752;2023-10-19T17:25:54;97063.06;;;6.72;100.00
48352;BME280;34163;49.314;6.752;2023-10-19T17:28:19;97061.91;;;6.77;100.00
48352;BME280;34163;49.314;6.752;2023-10-19T17:30:45;97070.09;;;6.85;100.00
48352;BME280;34163;49.314;6.752;2023-10-19T17:33:14;97061.97;;;6.88;100.00
48352;BME280;34163;49.314;6.752;2023-10-19T17:35:39;97069.47;;;6.81;100.00
48352;BME280;34163;49.314;6.752;2023-10-19T17:38:05;97061.66;;;6.93;100.00
48352;BME280;34163;49.314;6.752;2023-10-19T17:40:31;97054.94;;;6.76;100.00
48352;BME280;34163;49.314;6.752;2023-10-19T17:42:56;97062.72;;;6.77;100.00
48352;BME280;34163;49.314;6.752;2023-10-19T17:45:21;97067.13;;;6.89;100.00
48352;BME280;34163;49.314;6.752;2023-10-19T17:47:46;97077.66;;;6.89;100.00
48352;BME280;34163;49.314;6.752;2023-10-19T17:50:12;97074.72;;;6.94;100.00
48352;BME280;34163;49.314;6.752;2023-10-19T17:52:39;97067.69;;;6.82;100.00
48352;BME280;34163;49.314;6.752;2023-10-19T17:55:04;97070.50;;;6.91;100.00
48352;BME280;34163;49.314;6.752;2023-10-19T17:57:30;97058.09;;;6.81;100.00
48352;BME280;34163;49.314;6.752;2023-10-19T17:59:56;97042.69;;;6.87;100.00
48352;BME280;34163;49.314;6.752;2023-10-19T18:02:21;97043.22;;;6.93;100.00
48352;BME280;34163;49.314;6.752;2023-10-19T18:04:46;97045.00;;;6.92;100.00
48352;BME280;34163;49.314;6.752;2023-10-19T18:07:15;97043.22;;;6.93;100.00
48352;BME280;34163;49.314;6.752;2023-10-19T18:09:41;97032.06;;;6.89;100.00
48352;BME280;34163;49.314;6.752;2023-10-19T18:12:09;97032.81;;;6.91;100.00
48352;BME280;34163;49.314;6.752;2023-10-19T18:14:34;97035.44;;;6.91;100.00
48352;BME280;34163;49.314;6.752;2023-10-19T18:16:59;97025.63;;;6.93;100.00
48352;BME280;34163;49.314;6.752;2023-10-19T18:19:26;97025.13;;;6.88;100.00
48352;BME280;34163;49.314;6.752;2023-10-19T18:21:53;97025.25;;;6.86;100.00
48352;BME280;34163;49.314;6.752;2023-10-19T18:24:19;97018.44;;;6.71;100.00
48352;BME280;34163;49.314;6.752;2023-10-19T18:26:45;97003.25;;;6.75;100.00
48352;BME280;34163;49.314;6.752;2023-10-19T18:29:10;97001.88;;;6.82;100.00
48352;BME280;34163;49.314;6.752;2023-10-19T18:31:36;96999.34;;;6.80;100.00
48352;BME280;34163;49.314;6.752;2023-10-19T18:34:01;97005.84;;;6.87;100.00
48352;BME280;34163;49.314;6.752;2023-10-19T18:36:27;96994.59;;;6.85;100.00
48352;BME280;34163;49.314;6.752;2023-10-19T18:38:58;96989.31;;;6.85;100.00
48352;BME280;34163;49.314;6.752;2023-10-19T18:41:23;96979.19;;;6.92;100.00
48352;BME280;34163;49.314;6.752;2023-10-19T18:43:51;96980.38;;;6.88;100.00
48352;BME280;34163;49.314;6.752;2023-10-19T18:46:17;96989.81;;;6.90;100.00
48352;BME280;34163;49.314;6.752;2023-10-19T18:48:43;96991.97;;;6.85;100.00
48352;BME280;34163;49.314;6.752;2023-10-19T18:51:10;96990.31;;;6.71;100.00
48352;BME280;34163;49.314;6.752;2023-10-19T18:53:36;96987.56;;;6.73;100.00
48352;BME280;34163;49.314;6.752;2023-10-19T18:56:04;96984.63;;;6.78;100.00
48352;BME280;34163;49.314;6.752;2023-10-19T18:58:33;96986.13;;;6.69;100.00
48352;BME280;34163;49.314;6.752;2023-10-19T19:00:59;96990.03;;;6.63;100.00
48352;BME280;34163;49.314;6.752;2023-10-19T19:03:28;96992.22;;;6.69;100.00
48352;BME280;34163;49.314;6.752;2023-10-19T19:05:54;96999.03;;;6.85;100.00
48352;BME280;34163;49.314;6.752;2023-10-19T19:08:23;97009.28;;;6.77;100.00
48352;BME280;34163;49.314;6.752;2023-10-19T19:10:49;97010.72;;;6.81;100.00
48352;BME280;34163;49.314;6.752;2023-10-19T19:13:14;97009.78;;;6.82;100.00
48352;BME280;34163;49.314;6.752;2023-10-19T19:15:40;97006.31;;;6.81;100.00
48352;BME280;34163;49.314;6.752;2023-10-19T19:18:08;97012.63;;;6.79;100.00
48352;BME280;34163;49.314;6.752;2023-10-19T19:20:33;97013.63;;;6.89;100.00
48352;BME280;34163;49.314;6.752;2023-10-19T19:22:58;97006.47;;;6.91;100.00
48352;BME280;34163;49.314;6.752;2023-10-19T19:25:24;97014.50;;;6.89;100.00
48352;BME280;34163;49.314;6.752;2023-10-19T19:27:49;97012.47;;;6.93;100.00
48352;BME280;34163;49.314;6.752;2023-10-19T19:30:14;97013.81;;;6.99;100.00
48352;BME280;34163;49.314;6.752;2023-10-19T19:32:40;97010.78;;;6.92;100.00
48352;BME280;34163;49.314;6.752;2023-10-19T19:35:05;97014.00;;;7.08;100.00
48352;BME280;34163;49.314;6.752;2023-10-19T19:37:30;97016.22;;;7.02;100.00
48352;BME280;34163;49.314;6.752;2023-10-19T19:40:01;97019.53;;;6.93;100.00
48352;BME280;34163;49.314;6.752;2023-10-19T19:42:30;97014.66;;;6.99;100.00
48352;BME280;34163;49.314;6.752;2023-10-19T19:44:55;97011.97;;;6.88;100.00
48352;BME280;34163;49.314;6.752;2023-10-19T19:47:21;97017.13;;;6.89;100.00
48352;BME280;34163;49.314;6.752;2023-10-19T19:49:46;97007.72;;;6.98;100.00
48352;BME280;34163;49.314;6.752;2023-10-19T19:52:12;97010.88;;;6.90;100.00
48352;BME280;34163;49.314;6.752;2023-10-19T19:54:37;97007.53;;;6.88;100.00
48352;BME280;34163;49.314;6.752;2023-10-19T19:57:02;97007.22;;;6.93;100.00
48352;BME280;34163;49.314;6.752;2023-10-19T19:59:28;96997.88;;;6.76;100.00
48352;BME280;34163;49.314;6.752;2023-10-19T20:01:55;96995.31;;;6.87;100.00
48352;BME280;34163;49.314;6.752;2023-10-19T20:04:20;96987.13;;;6.79;100.00
48352;BME280;34163;49.314;6.752;2023-10-19T20:06:48;96989.16;;;6.76;100.00
48352;BME280;34163;49.314;6.752;2023-10-19T20:09:14;96978.69;;;6.87;100.00
48352;BME280;34163;49.314;6.752;2023-10-19T20:11:42;96984.13;;;6.97;100.00
48352;BME280;34163;49.314;6.752;2023-10-19T20:14:07;96974.91;;;6.91;100.00
48352;BME280;34163;49.314;6.752;2023-10-19T20:16:33;96961.09;;;6.87;100.00
48352;BME280;34163;49.314;6.752;2023-10-19T20:18:59;96967.22;;;6.88;100.00
48352;BME280;34163;49.314;6.752;2023-10-19T20:21:24;96962.19;;;6.85;100.00
48352;BME280;34163;49.314;6.752;2023-10-19T20:23:49;96955.50;;;6.92;100.00
48352;BME280;34163;49.314;6.752;2023-10-19T20:26:15;96949.41;;;6.91;100.00
48352;BME280;34163;49.314;6.752;2023-10-19T20:28:41;96951.94;;;6.93;100.00
48352;BME280;34163;49.314;6.752;2023-10-19T20:31:09;96958.78;;;6.96;100.00
48352;BME280;34163;49.314;6.752;2023-10-19T20:33:34;96956.25;;;6.94;100.00
48352;BME280;34163;49.314;6.752;2023-10-19T20:36:00;96944.75;;;6.95;100.00
48352;BME280;34163;49.314;6.752;2023-10-19T20:38:25;96947.16;;;6.98;100.00
48352;BME280;34163;49.314;6.752;2023-10-19T20:40:51;96944.34;;;6.88;100.00
48352;BME280;34163;49.314;6.752;2023-10-19T20:43:16;96951.94;;;6.93;100.00
48352;BME280;34163;49.314;6.752;2023-10-19T20:45:44;96947.38;;;6.95;100.00
48352;BME280;34163;49.314;6.752;2023-10-19T20:48:09;96948.09;;;6.97;100.00
48352;BME280;34163;49.314;6.752;2023-10-19T20:50:35;96950.97;;;6.94;100.00
48352;BME280;34163;49.314;6.752;2023-10-19T20:55:59;96940.72;;;7.02;100.00
48352;BME280;34163;49.314;6.752;2023-10-19T20:58:24;96939.25;;;6.98;100.00
48352;BME280;34163;49.314;6.752;2023-10-19T21:00:51;96943.34;;;7.02;100.00
48352;BME280;34163;49.314;6.752;2023-10-19T21:03:16;96929.56;;;6.99;100.00
48352;BME280;34163;49.314;6.752;2023-10-19T21:05:42;96923.00;;;7.04;100.00
48352;BME280;34163;49.314;6.752;2023-10-19T21:08:07;96927.03;;;6.97;100.00
48352;BME280;34163;49.314;6.752;2023-10-19T21:10:32;96920.00;;;6.98;100.00
48352;BME280;34163;49.314;6.752;2023-10-19T21:12:59;96912.00;;;6.99;100.00
48352;BME280;34163;49.314;6.752;2023-10-19T21:15:24;96909.03;;;7.04;100.00
48352;BME280;34163;49.314;6.752;2023-10-19T21:17:50;96893.78;;;6.96;100.00
48352;BME280;34163;49.314;6.752;2023-10-19T21:20:16;96892.59;;;7.00;100.00
48352;BME280;34163;49.314;6.752;2023-10-19T21:22:43;96890.81;;;7.01;100.00
48352;BME280;34163;49.314;6.752;2023-10-19T21:25:09;96885.41;;;6.91;100.00
48352;BME280;34163;49.314;6.752;2023-10-19T21:27:38;96875.63;;;7.04;100.00